sensor_id;sensor_type;location;lat;lon;timestamp;P1;durP1;ratioP1;P2;durP2;ratioP2
63046;SDS011;62025;39.238;9.126;2023-06-19T00:01:21;10.38;;;4.07;;
63046;SDS011;62025;39.238;9.126;2023-06-19T00:03:47;4.38;;;3.95;;
63046;SDS011;62025;39.238;9.126;2023-06-19T00:06:13;3.90;;;3.10;;
63046;SDS011;62025;39.238;9.126;2023-06-19T00:08:39;5.30;;;3.85;;
63046;SDS011;62025;39.238;9.126;2023-06-19T00:11:08;6.38;;;3.50;;
63046;SDS011;62025;39.238;9.126;2023-06-19T00:13:34;7.82;;;3.33;;
63046;SDS011;62025;39.238;9.126;2023-06-19T00:16:00;5.38;;;3.35;;
63046;SDS011;62025;39.238;9.126;2023-06-19T00:18:27;6.45;;;3.40;;
63046;SDS011;62025;39.238;9.126;2023-06-19T00:20:53;7.28;;;3.60;;
63046;SDS011;62025;39.238;9.126;2023-06-19T00:23:24;6.63;;;3.30;;
63046;SDS011;62025;39.238;9.126;2023-06-19T00:25:50;7.15;;;3.25;;
63046;SDS011;62025;39.238;9.126;2023-06-19T00:28:16;4.85;;;3.55;;
63046;SDS011;62025;39.238;9.126;2023-06-19T00:30:45;10.65;;;4.00;;
63046;SDS011;62025;39.238;9.126;2023-06-19T00:33:12;7.43;;;3.83;;
63046;SDS011;62025;39.238;9.126;2023-06-19T00:35:38;4.47;;;3.63;;
63046;SDS011;62025;39.238;9.126;2023-06-19T00:38:07;4.25;;;3.42;;
63046;SDS011;62025;39.238;9.126;2023-06-19T00:40:33;7.00;;;3.88;;
63046;SDS011;62025;39.238;9.126;2023-06-19T00:42:59;4.35;;;3.45;;
63046;SDS011;62025;39.238;9.126;2023-06-19T00:45:26;8.82;;;4.45;;
63046;SDS011;62025;39.238;9.126;2023-06-19T00:47:55;6.03;;;3.50;;
63046;SDS011;62025;39.238;9.126;2023-06-19T00:50:23;8.00;;;3.67;;
63046;SDS011;62025;39.238;9.126;2023-06-19T00:52:50;6.53;;;3.35;;
63046;SDS011;62025;39.238;9.126;2023-06-19T00:55:17;5.97;;;3.40;;
63046;SDS011;62025;39.238;9.126;2023-06-19T00:57:44;7.50;;;3.95;;
63046;SDS011;62025;39.238;9.126;2023-06-19T01:00:11;8.70;;;3.65;;
63046;SDS011;62025;39.238;9.126;2023-06-19T01:02:38;5.75;;;3.53;;
63046;SDS011;62025;39.238;9.126;2023-06-19T01:05:05;6.90;;;3.67;;
63046;SDS011;62025;39.238;9.126;2023-06-19T01:07:41;5.20;;;3.78;;
63046;SDS011;62025;39.238;9.126;2023-06-19T01:10:16;6.63;;;3.67;;
63046;SDS011;62025;39.238;9.126;2023-06-19T01:13:01;6.85;;;3.55;;
63046;SDS011;62025;39.238;9.126;2023-06-19T01:15:35;8.05;;;3.70;;
63046;SDS011;62025;39.238;9.126;2023-06-19T01:18:03;5.95;;;3.58;;
63046;SDS011;62025;39.238;9.126;2023-06-19T01:20:29;4.40;;;3.58;;
63046;SDS011;62025;39.238;9.126;2023-06-19T01:22:56;7.57;;;3.40;;
63046;SDS011;62025;39.238;9.126;2023-06-19T01:25:23;4.82;;;3.45;;
63046;SDS011;62025;39.238;9.126;2023-06-19T01:27:49;7.22;;;3.38;;
63046;SDS011;62025;39.238;9.126;2023-06-19T01:30:16;4.05;;;3.50;;
63046;SDS011;62025;39.238;9.126;2023-06-19T01:35:33;5.85;;;3.70;;
63046;SDS011;62025;39.238;9.126;2023-06-19T01:38:02;4.13;;;3.70;;
63046;SDS011;62025;39.238;9.126;2023-06-19T01:40:31;5.32;;;3.30;;
63046;SDS011;62025;39.238;9.126;2023-06-19T01:42:59;8.30;;;3.50;;
63046;SDS011;62025;39.238;9.126;2023-06-19T01:45:30;6.75;;;3.67;;
63046;SDS011;62025;39.238;9.126;2023-06-19T01:47:56;5.22;;;3.35;;
63046;SDS011;62025;39.238;9.126;2023-06-19T01:50:24;8.97;;;3.43;;
63046;SDS011;62025;39.238;9.126;2023-06-19T01:52:50;4.50;;;3.38;;
63046;SDS011;62025;39.238;9.126;2023-06-19T01:55:17;7.75;;;3.35;;
63046;SDS011;62025;39.238;9.126;2023-06-19T01:57:43;4.85;;;3.17;;
63046;SDS011;62025;39.238;9.126;2023-06-19T02:00:12;6.50;;;3.20;;
63046;SDS011;62025;39.238;9.126;2023-06-19T02:02:41;5.90;;;3.50;;
63046;SDS011;62025;39.238;9.126;2023-06-19T02:05:07;6.65;;;3.47;;
63046;SDS011;62025;39.238;9.126;2023-06-19T02:07:33;5.30;;;3.50;;
63046;SDS011;62025;39.238;9.126;2023-06-19T02:09:59;6.03;;;3.47;;
63046;SDS011;62025;39.238;9.126;2023-06-19T02:12:25;5.55;;;3.20;;
63046;SDS011;62025;39.238;9.126;2023-06-19T02:14:51;5.63;;;3.63;;
63046;SDS011;62025;39.238;9.126;2023-06-19T02:17:17;6.45;;;3.60;;
63046;SDS011;62025;39.238;9.126;2023-06-19T02:19:43;8.98;;;3.58;;
63046;SDS011;62025;39.238;9.126;2023-06-19T02:22:09;8.77;;;3.55;;
63046;SDS011;62025;39.238;9.126;2023-06-19T02:24:35;4.53;;;3.17;;
63046;SDS011;62025;39.238;9.126;2023-06-19T02:27:03;8.02;;;3.30;;
63046;SDS011;62025;39.238;9.126;2023-06-19T02:29:30;8.43;;;3.60;;
63046;SDS011;62025;39.238;9.126;2023-06-19T02:31:59;5.07;;;3.55;;
63046;SDS011;62025;39.238;9.126;2023-06-19T02:34:26;5.32;;;3.25;;
63046;SDS011;62025;39.238;9.126;2023-06-19T02:36:51;5.30;;;3.33;;
63046;SDS011;62025;39.238;9.126;2023-06-19T02:39:18;5.47;;;3.03;;
63046;SDS011;62025;39.238;9.126;2023-06-19T02:41:44;5.80;;;3.15;;
63046;SDS011;62025;39.238;9.126;2023-06-19T02:44:12;5.50;;;2.97;;
63046;SDS011;62025;39.238;9.126;2023-06-19T02:46:39;5.82;;;3.33;;
63046;SDS011;62025;39.238;9.126;2023-06-19T02:49:08;5.28;;;3.17;;
63046;SDS011;62025;39.238;9.126;2023-06-19T02:51:34;6.65;;;3.33;;
63046;SDS011;62025;39.238;9.126;2023-06-19T02:54:00;4.80;;;3.08;;
63046;SDS011;62025;39.238;9.126;2023-06-19T02:56:26;7.28;;;3.00;;
63046;SDS011;62025;39.238;9.126;2023-06-19T02:58:53;4.72;;;2.85;;
63046;SDS011;62025;39.238;9.126;2023-06-19T03:01:19;5.45;;;3.08;;
63046;SDS011;62025;39.238;9.126;2023-06-19T03:03:45;6.55;;;3.13;;
63046;SDS011;62025;39.238;9.126;2023-06-19T03:06:13;3.33;;;2.90;;
63046;SDS011;62025;39.238;9.126;2023-06-19T03:08:39;4.25;;;2.90;;
63046;SDS011;62025;39.238;9.126;2023-06-19T03:11:05;3.83;;;2.78;;
63046;SDS011;62025;39.238;9.126;2023-06-19T03:13:44;4.03;;;2.90;;
63046;SDS011;62025;39.238;9.126;2023-06-19T03:16:13;4.68;;;3.00;;
63046;SDS011;62025;39.238;9.126;2023-06-19T03:18:42;5.57;;;2.80;;
63046;SDS011;62025;39.238;9.126;2023-06-19T03:21:14;4.22;;;2.40;;
63046;SDS011;62025;39.238;9.126;2023-06-19T03:23:42;4.45;;;2.90;;
63046;SDS011;62025;39.238;9.126;2023-06-19T03:26:09;3.53;;;2.53;;
63046;SDS011;62025;39.238;9.126;2023-06-19T03:28:40;3.67;;;2.70;;
63046;SDS011;62025;39.238;9.126;2023-06-19T03:31:08;5.18;;;2.85;;
63046;SDS011;62025;39.238;9.126;2023-06-19T03:33:34;4.50;;;2.70;;
63046;SDS011;62025;39.238;9.126;2023-06-19T03:36:00;3.58;;;2.47;;
63046;SDS011;62025;39.238;9.126;2023-06-19T03:38:59;3.95;;;2.75;;
63046;SDS011;62025;39.238;9.126;2023-06-19T03:41:28;5.25;;;2.72;;
63046;SDS011;62025;39.238;9.126;2023-06-19T03:43:55;5.43;;;2.60;;
63046;SDS011;62025;39.238;9.126;2023-06-19T03:46:23;3.92;;;2.75;;
63046;SDS011;62025;39.238;9.126;2023-06-19T03:48:49;5.72;;;2.85;;
63046;SDS011;62025;39.238;9.126;2023-06-19T03:51:15;4.22;;;2.72;;
63046;SDS011;62025;39.238;9.126;2023-06-19T03:53:41;2.85;;;2.50;;
63046;SDS011;62025;39.238;9.126;2023-06-19T03:56:07;5.03;;;2.70;;
63046;SDS011;62025;39.238;9.126;2023-06-19T03:58:33;4.43;;;2.70;;
63046;SDS011;62025;39.238;9.126;2023-06-19T04:01:00;4.15;;;2.60;;
63046;SDS011;62025;39.238;9.126;2023-06-19T04:03:27;3.67;;;2.40;;
63046;SDS011;62025;39.238;9.126;2023-06-19T04:05:53;3.25;;;2.28;;
63046;SDS011;62025;39.238;9.126;2023-06-19T04:08:19;3.60;;;2.38;;
63046;SDS011;62025;39.238;9.126;2023-06-19T04:10:45;5.43;;;2.88;;
63046;SDS011;62025;39.238;9.126;2023-06-19T04:13:11;6.25;;;2.83;;
63046;SDS011;62025;39.238;9.126;2023-06-19T04:15:38;5.60;;;3.05;;
63046;SDS011;62025;39.238;9.126;2023-06-19T04:18:04;3.15;;;2.40;;
63046;SDS011;62025;39.238;9.126;2023-06-19T04:20:30;6.60;;;3.05;;
63046;SDS011;62025;39.238;9.126;2023-06-19T04:22:56;3.10;;;2.55;;
63046;SDS011;62025;39.238;9.126;2023-06-19T04:25:22;4.03;;;2.60;;
63046;SDS011;62025;39.238;9.126;2023-06-19T04:27:49;4.43;;;2.22;;
63046;SDS011;62025;39.238;9.126;2023-06-19T04:30:15;9.55;;;2.80;;
63046;SDS011;62025;39.238;9.126;2023-06-19T04:32:41;4.38;;;2.50;;
63046;SDS011;62025;39.238;9.126;2023-06-19T04:35:07;3.85;;;2.58;;
63046;SDS011;62025;39.238;9.126;2023-06-19T04:37:34;5.27;;;2.30;;
63046;SDS011;62025;39.238;9.126;2023-06-19T04:40:00;3.25;;;2.47;;
63046;SDS011;62025;39.238;9.126;2023-06-19T04:42:28;4.70;;;2.42;;
63046;SDS011;62025;39.238;9.126;2023-06-19T04:44:54;4.50;;;2.45;;
63046;SDS011;62025;39.238;9.126;2023-06-19T04:47:22;3.72;;;2.28;;
63046;SDS011;62025;39.238;9.126;2023-06-19T04:49:49;3.10;;;2.50;;
63046;SDS011;62025;39.238;9.126;2023-06-19T04:52:16;4.22;;;2.30;;
63046;SDS011;62025;39.238;9.126;2023-06-19T04:54:43;3.97;;;2.50;;
63046;SDS011;62025;39.238;9.126;2023-06-19T04:57:10;5.35;;;3.55;;
63046;SDS011;62025;39.238;9.126;2023-06-19T04:59:36;6.93;;;2.20;;
63046;SDS011;62025;39.238;9.126;2023-06-19T05:02:01;4.30;;;2.30;;
63046;SDS011;62025;39.238;9.126;2023-06-19T05:04:28;5.32;;;2.55;;
63046;SDS011;62025;39.238;9.126;2023-06-19T05:06:57;5.60;;;2.33;;
63046;SDS011;62025;39.238;9.126;2023-06-19T05:09:24;6.53;;;2.63;;
63046;SDS011;62025;39.238;9.126;2023-06-19T05:11:50;7.22;;;2.70;;
63046;SDS011;62025;39.238;9.126;2023-06-19T05:14:16;5.28;;;2.80;;
63046;SDS011;62025;39.238;9.126;2023-06-19T05:16:42;6.38;;;3.10;;
63046;SDS011;62025;39.238;9.126;2023-06-19T05:19:08;7.95;;;3.00;;
63046;SDS011;62025;39.238;9.126;2023-06-19T05:21:35;7.63;;;2.90;;
63046;SDS011;62025;39.238;9.126;2023-06-19T05:24:01;3.88;;;3.10;;
63046;SDS011;62025;39.238;9.126;2023-06-19T05:26:27;4.10;;;3.17;;
63046;SDS011;62025;39.238;9.126;2023-06-19T05:28:53;7.13;;;3.00;;
63046;SDS011;62025;39.238;9.126;2023-06-19T05:31:19;5.82;;;3.55;;
63046;SDS011;62025;39.238;9.126;2023-06-19T05:33:45;7.32;;;3.10;;
63046;SDS011;62025;39.238;9.126;2023-06-19T05:36:11;4.30;;;3.25;;
63046;SDS011;62025;39.238;9.126;2023-06-19T05:38:37;4.90;;;3.10;;
63046;SDS011;62025;39.238;9.126;2023-06-19T05:41:03;4.70;;;3.35;;
63046;SDS011;62025;39.238;9.126;2023-06-19T05:43:29;4.35;;;3.42;;
63046;SDS011;62025;39.238;9.126;2023-06-19T05:45:57;8.53;;;3.27;;
63046;SDS011;62025;39.238;9.126;2023-06-19T05:48:24;5.25;;;3.10;;
63046;SDS011;62025;39.238;9.126;2023-06-19T05:50:51;4.22;;;2.92;;
63046;SDS011;62025;39.238;9.126;2023-06-19T05:53:17;8.35;;;3.42;;
63046;SDS011;62025;39.238;9.126;2023-06-19T05:55:43;7.35;;;3.40;;
63046;SDS011;62025;39.238;9.126;2023-06-19T05:58:09;5.07;;;3.28;;
63046;SDS011;62025;39.238;9.126;2023-06-19T06:00:35;8.45;;;3.33;;
63046;SDS011;62025;39.238;9.126;2023-06-19T06:03:01;4.43;;;3.13;;
63046;SDS011;62025;39.238;9.126;2023-06-19T06:05:27;5.57;;;3.13;;
63046;SDS011;62025;39.238;9.126;2023-06-19T06:07:54;6.25;;;2.85;;
63046;SDS011;62025;39.238;9.126;2023-06-19T06:10:20;8.88;;;3.03;;
63046;SDS011;62025;39.238;9.126;2023-06-19T06:12:48;7.70;;;3.30;;
63046;SDS011;62025;39.238;9.126;2023-06-19T06:15:14;8.05;;;3.08;;
63046;SDS011;62025;39.238;9.126;2023-06-19T06:17:41;5.85;;;2.80;;
63046;SDS011;62025;39.238;9.126;2023-06-19T06:20:07;5.78;;;3.08;;
63046;SDS011;62025;39.238;9.126;2023-06-19T06:22:40;4.03;;;2.80;;
63046;SDS011;62025;39.238;9.126;2023-06-19T06:25:08;6.43;;;3.00;;
63046;SDS011;62025;39.238;9.126;2023-06-19T06:27:37;7.70;;;2.83;;
63046;SDS011;62025;39.238;9.126;2023-06-19T06:32:32;7.30;;;2.78;;
63046;SDS011;62025;39.238;9.126;2023-06-19T06:34:59;6.20;;;2.60;;
63046;SDS011;62025;39.238;9.126;2023-06-19T06:37:25;6.40;;;2.60;;
63046;SDS011;62025;39.238;9.126;2023-06-19T06:39:51;4.85;;;2.38;;
63046;SDS011;62025;39.238;9.126;2023-06-19T06:42:17;4.93;;;2.65;;
63046;SDS011;62025;39.238;9.126;2023-06-19T06:44:44;4.82;;;2.55;;
63046;SDS011;62025;39.238;9.126;2023-06-19T06:47:10;8.30;;;2.47;;
63046;SDS011;62025;39.238;9.126;2023-06-19T06:49:36;4.05;;;2.80;;
63046;SDS011;62025;39.238;9.126;2023-06-19T06:52:06;5.70;;;2.58;;
63046;SDS011;62025;39.238;9.126;2023-06-19T06:54:35;5.70;;;2.38;;
63046;SDS011;62025;39.238;9.126;2023-06-19T06:57:01;4.32;;;2.15;;
63046;SDS011;62025;39.238;9.126;2023-06-19T06:59:27;5.75;;;2.40;;
63046;SDS011;62025;39.238;9.126;2023-06-19T07:01:54;5.47;;;2.47;;
63046;SDS011;62025;39.238;9.126;2023-06-19T07:04:21;5.78;;;2.30;;
63046;SDS011;62025;39.238;9.126;2023-06-19T07:06:47;3.28;;;2.15;;
63046;SDS011;62025;39.238;9.126;2023-06-19T07:09:14;5.68;;;2.45;;
63046;SDS011;62025;39.238;9.126;2023-06-19T07:11:40;6.03;;;2.70;;
63046;SDS011;62025;39.238;9.126;2023-06-19T07:14:06;5.65;;;2.40;;
63046;SDS011;62025;39.238;9.126;2023-06-19T07:16:32;3.53;;;2.60;;
63046;SDS011;62025;39.238;9.126;2023-06-19T07:18:58;5.15;;;2.42;;
63046;SDS011;62025;39.238;9.126;2023-06-19T07:21:24;4.03;;;2.55;;
63046;SDS011;62025;39.238;9.126;2023-06-19T07:23:53;3.72;;;2.42;;
63046;SDS011;62025;39.238;9.126;2023-06-19T07:26:21;3.10;;;2.22;;
63046;SDS011;62025;39.238;9.126;2023-06-19T07:28:48;4.05;;;2.55;;
63046;SDS011;62025;39.238;9.126;2023-06-19T07:31:14;8.27;;;2.63;;
63046;SDS011;62025;39.238;9.126;2023-06-19T07:33:40;6.60;;;2.70;;
63046;SDS011;62025;39.238;9.126;2023-06-19T07:36:06;3.65;;;2.50;;
63046;SDS011;62025;39.238;9.126;2023-06-19T07:38:32;3.45;;;2.42;;
63046;SDS011;62025;39.238;9.126;2023-06-19T07:40:58;5.88;;;2.35;;
63046;SDS011;62025;39.238;9.126;2023-06-19T07:43:24;4.65;;;2.50;;
63046;SDS011;62025;39.238;9.126;2023-06-19T07:45:50;4.65;;;2.60;;
63046;SDS011;62025;39.238;9.126;2023-06-19T07:48:16;3.63;;;2.33;;
63046;SDS011;62025;39.238;9.126;2023-06-19T07:50:42;3.28;;;2.20;;
63046;SDS011;62025;39.238;9.126;2023-06-19T07:53:08;3.35;;;2.35;;
63046;SDS011;62025;39.238;9.126;2023-06-19T07:55:35;4.10;;;2.55;;
63046;SDS011;62025;39.238;9.126;2023-06-19T07:58:01;3.60;;;2.30;;
63046;SDS011;62025;39.238;9.126;2023-06-19T08:00:27;4.05;;;2.40;;
63046;SDS011;62025;39.238;9.126;2023-06-19T08:02:53;3.72;;;2.63;;
63046;SDS011;62025;39.238;9.126;2023-06-19T08:05:19;3.53;;;2.38;;
63046;SDS011;62025;39.238;9.126;2023-06-19T08:07:45;7.78;;;2.70;;
63046;SDS011;62025;39.238;9.126;2023-06-19T08:10:12;4.75;;;2.50;;
63046;SDS011;62025;39.238;9.126;2023-06-19T08:12:38;4.40;;;2.42;;
63046;SDS011;62025;39.238;9.126;2023-06-19T08:15:05;4.37;;;2.40;;
63046;SDS011;62025;39.238;9.126;2023-06-19T08:17:32;6.05;;;2.55;;
63046;SDS011;62025;39.238;9.126;2023-06-19T08:20:02;4.43;;;2.15;;
63046;SDS011;62025;39.238;9.126;2023-06-19T08:22:32;7.25;;;2.17;;
63046;SDS011;62025;39.238;9.126;2023-06-19T08:24:58;5.28;;;2.33;;
63046;SDS011;62025;39.238;9.126;2023-06-19T08:27:24;4.28;;;2.40;;
63046;SDS011;62025;39.238;9.126;2023-06-19T08:29:50;4.88;;;2.50;;
63046;SDS011;62025;39.238;9.126;2023-06-19T08:32:16;2.85;;;2.10;;
63046;SDS011;62025;39.238;9.126;2023-06-19T08:34:42;5.32;;;2.60;;
63046;SDS011;62025;39.238;9.126;2023-06-19T08:37:08;4.32;;;2.42;;
63046;SDS011;62025;39.238;9.126;2023-06-19T08:39:34;4.30;;;2.30;;
63046;SDS011;62025;39.238;9.126;2023-06-19T08:42:05;5.30;;;2.40;;
63046;SDS011;62025;39.238;9.126;2023-06-19T08:44:33;8.07;;;2.63;;
63046;SDS011;62025;39.238;9.126;2023-06-19T08:47:03;3.00;;;2.30;;
63046;SDS011;62025;39.238;9.126;2023-06-19T08:49:30;5.55;;;2.45;;
63046;SDS011;62025;39.238;9.126;2023-06-19T08:52:03;2.65;;;2.30;;
63046;SDS011;62025;39.238;9.126;2023-06-19T08:54:31;3.80;;;2.28;;
63046;SDS011;62025;39.238;9.126;2023-06-19T08:57:01;2.67;;;2.03;;
63046;SDS011;62025;39.238;9.126;2023-06-19T08:59:30;4.47;;;2.65;;
63046;SDS011;62025;39.238;9.126;2023-06-19T09:01:59;6.05;;;2.30;;
63046;SDS011;62025;39.238;9.126;2023-06-19T09:04:29;2.70;;;2.20;;
63046;SDS011;62025;39.238;9.126;2023-06-19T09:09:45;6.07;;;2.38;;
63046;SDS011;62025;39.238;9.126;2023-06-19T09:12:12;4.88;;;2.13;;
63046;SDS011;62025;39.238;9.126;2023-06-19T09:14:45;4.20;;;2.40;;
63046;SDS011;62025;39.238;9.126;2023-06-19T09:17:20;3.55;;;2.25;;
63046;SDS011;62025;39.238;9.126;2023-06-19T09:22:17;4.30;;;2.47;;
63046;SDS011;62025;39.238;9.126;2023-06-19T09:24:46;6.97;;;2.30;;
63046;SDS011;62025;39.238;9.126;2023-06-19T09:27:17;5.32;;;2.50;;
63046;SDS011;62025;39.238;9.126;2023-06-19T09:29:45;6.15;;;2.65;;
63046;SDS011;62025;39.238;9.126;2023-06-19T09:32:34;4.35;;;2.45;;
63046;SDS011;62025;39.238;9.126;2023-06-19T09:35:00;5.28;;;2.60;;
63046;SDS011;62025;39.238;9.126;2023-06-19T09:37:29;3.70;;;2.40;;
63046;SDS011;62025;39.238;9.126;2023-06-19T09:39:57;3.20;;;2.33;;
63046;SDS011;62025;39.238;9.126;2023-06-19T09:42:33;4.13;;;2.28;;
63046;SDS011;62025;39.238;9.126;2023-06-19T09:45:01;4.30;;;2.58;;
63046;SDS011;62025;39.238;9.126;2023-06-19T09:47:38;4.10;;;2.45;;
63046;SDS011;62025;39.238;9.126;2023-06-19T09:50:10;5.63;;;2.40;;
63046;SDS011;62025;39.238;9.126;2023-06-19T09:52:42;6.25;;;2.65;;
63046;SDS011;62025;39.238;9.126;2023-06-19T09:55:10;7.97;;;2.80;;
63046;SDS011;62025;39.238;9.126;2023-06-19T09:57:41;4.03;;;2.60;;
63046;SDS011;62025;39.238;9.126;2023-06-19T10:00:09;3.80;;;2.72;;
63046;SDS011;62025;39.238;9.126;2023-06-19T10:02:42;3.33;;;2.70;;
63046;SDS011;62025;39.238;9.126;2023-06-19T10:05:10;6.43;;;2.55;;
63046;SDS011;62025;39.238;9.126;2023-06-19T10:07:38;6.07;;;2.80;;
63046;SDS011;62025;39.238;9.126;2023-06-19T10:10:08;6.95;;;2.90;;
63046;SDS011;62025;39.238;9.126;2023-06-19T10:12:45;4.10;;;2.97;;
63046;SDS011;62025;39.238;9.126;2023-06-19T10:15:12;6.65;;;3.03;;
63046;SDS011;62025;39.238;9.126;2023-06-19T10:17:48;3.85;;;2.60;;
63046;SDS011;62025;39.238;9.126;2023-06-19T10:20:32;6.57;;;3.40;;
63046;SDS011;62025;39.238;9.126;2023-06-19T10:25:44;6.45;;;2.90;;
63046;SDS011;62025;39.238;9.126;2023-06-19T10:31:02;9.95;;;3.17;;
63046;SDS011;62025;39.238;9.126;2023-06-19T10:33:31;7.40;;;2.67;;
63046;SDS011;62025;39.238;9.126;2023-06-19T10:35:59;3.80;;;2.70;;
63046;SDS011;62025;39.238;9.126;2023-06-19T10:38:29;4.60;;;2.85;;
63046;SDS011;62025;39.238;9.126;2023-06-19T10:40:55;6.68;;;3.05;;
63046;SDS011;62025;39.238;9.126;2023-06-19T10:43:22;9.00;;;3.00;;
63046;SDS011;62025;39.238;9.126;2023-06-19T10:45:53;5.70;;;2.58;;
63046;SDS011;62025;39.238;9.126;2023-06-19T10:48:20;4.10;;;3.10;;
63046;SDS011;62025;39.238;9.126;2023-06-19T10:50:48;6.07;;;2.67;;
63046;SDS011;62025;39.238;9.126;2023-06-19T10:53:29;6.18;;;3.00;;
63046;SDS011;62025;39.238;9.126;2023-06-19T10:55:58;3.72;;;3.30;;
63046;SDS011;62025;39.238;9.126;2023-06-19T10:58:28;5.47;;;2.90;;
63046;SDS011;62025;39.238;9.126;2023-06-19T11:00:54;7.60;;;3.30;;
63046;SDS011;62025;39.238;9.126;2023-06-19T11:03:22;4.55;;;3.20;;
63046;SDS011;62025;39.238;9.126;2023-06-19T11:05:50;6.20;;;3.40;;
63046;SDS011;62025;39.238;9.126;2023-06-19T11:08:19;4.75;;;2.95;;
63046;SDS011;62025;39.238;9.126;2023-06-19T11:10:49;5.82;;;3.15;;
63046;SDS011;62025;39.238;9.126;2023-06-19T11:13:16;3.35;;;3.03;;
63046;SDS011;62025;39.238;9.126;2023-06-19T11:18:10;4.13;;;3.08;;
63046;SDS011;62025;39.238;9.126;2023-06-19T11:20:46;4.32;;;3.28;;
63046;SDS011;62025;39.238;9.126;2023-06-19T11:23:26;3.88;;;2.95;;
63046;SDS011;62025;39.238;9.126;2023-06-19T11:26:02;3.83;;;3.25;;
63046;SDS011;62025;39.238;9.126;2023-06-19T11:28:29;5.82;;;3.60;;
63046;SDS011;62025;39.238;9.126;2023-06-19T11:30:59;5.82;;;3.10;;
63046;SDS011;62025;39.238;9.126;2023-06-19T11:33:28;5.35;;;3.15;;
63046;SDS011;62025;39.238;9.126;2023-06-19T11:35:58;6.37;;;3.23;;
63046;SDS011;62025;39.238;9.126;2023-06-19T11:38:27;5.65;;;3.20;;
63046;SDS011;62025;39.238;9.126;2023-06-19T11:40:54;4.15;;;3.15;;
63046;SDS011;62025;39.238;9.126;2023-06-19T11:46:06;7.47;;;3.20;;
63046;SDS011;62025;39.238;9.126;2023-06-19T11:48:36;5.07;;;3.10;;
63046;SDS011;62025;39.238;9.126;2023-06-19T11:51:03;5.85;;;3.35;;
63046;SDS011;62025;39.238;9.126;2023-06-19T11:53:29;4.28;;;3.35;;
63046;SDS011;62025;39.238;9.126;2023-06-19T11:55:55;6.53;;;3.60;;
63046;SDS011;62025;39.238;9.126;2023-06-19T11:58:21;6.25;;;3.45;;
63046;SDS011;62025;39.238;9.126;2023-06-19T12:00:47;6.03;;;3.38;;
63046;SDS011;62025;39.238;9.126;2023-06-19T12:03:14;5.97;;;3.08;;
63046;SDS011;62025;39.238;9.126;2023-06-19T12:05:40;6.10;;;3.42;;
63046;SDS011;62025;39.238;9.126;2023-06-19T12:08:06;10.10;;;3.47;;
63046;SDS011;62025;39.238;9.126;2023-06-19T12:10:33;8.18;;;3.30;;
63046;SDS011;62025;39.238;9.126;2023-06-19T12:12:59;5.90;;;3.50;;
63046;SDS011;62025;39.238;9.126;2023-06-19T12:15:25;5.55;;;3.28;;
63046;SDS011;62025;39.238;9.126;2023-06-19T12:17:52;5.28;;;2.83;;
63046;SDS011;62025;39.238;9.126;2023-06-19T12:20:18;6.93;;;3.42;;
63046;SDS011;62025;39.238;9.126;2023-06-19T12:22:45;6.88;;;3.25;;
63046;SDS011;62025;39.238;9.126;2023-06-19T12:25:11;7.65;;;3.95;;
63046;SDS011;62025;39.238;9.126;2023-06-19T12:27:37;6.75;;;3.40;;
63046;SDS011;62025;39.238;9.126;2023-06-19T12:30:04;8.73;;;3.45;;
63046;SDS011;62025;39.238;9.126;2023-06-19T12:32:31;8.18;;;3.55;;
63046;SDS011;62025;39.238;9.126;2023-06-19T12:34:59;6.63;;;3.53;;
63046;SDS011;62025;39.238;9.126;2023-06-19T12:37:25;5.32;;;3.65;;
63046;SDS011;62025;39.238;9.126;2023-06-19T12:39:51;8.00;;;3.55;;
63046;SDS011;62025;39.238;9.126;2023-06-19T12:42:17;6.32;;;3.42;;
63046;SDS011;62025;39.238;9.126;2023-06-19T12:44:43;7.18;;;3.38;;
63046;SDS011;62025;39.238;9.126;2023-06-19T12:47:10;4.07;;;3.35;;
63046;SDS011;62025;39.238;9.126;2023-06-19T12:49:36;8.07;;;3.58;;
63046;SDS011;62025;39.238;9.126;2023-06-19T12:52:02;5.53;;;3.25;;
63046;SDS011;62025;39.238;9.126;2023-06-19T12:54:28;6.60;;;3.50;;
63046;SDS011;62025;39.238;9.126;2023-06-19T12:56:54;5.25;;;3.40;;
63046;SDS011;62025;39.238;9.126;2023-06-19T12:59:21;4.93;;;3.58;;
63046;SDS011;62025;39.238;9.126;2023-06-19T13:01:47;4.45;;;3.50;;
63046;SDS011;62025;39.238;9.126;2023-06-19T13:04:13;8.15;;;3.42;;
63046;SDS011;62025;39.238;9.126;2023-06-19T13:06:40;6.75;;;3.60;;
63046;SDS011;62025;39.238;9.126;2023-06-19T13:09:06;3.78;;;3.00;;
63046;SDS011;62025;39.238;9.126;2023-06-19T13:11:32;6.70;;;3.75;;
63046;SDS011;62025;39.238;9.126;2023-06-19T13:14:00;5.78;;;3.70;;
63046;SDS011;62025;39.238;9.126;2023-06-19T13:16:26;7.93;;;3.33;;
63046;SDS011;62025;39.238;9.126;2023-06-19T13:18:52;5.18;;;3.75;;
63046;SDS011;62025;39.238;9.126;2023-06-19T13:21:18;5.85;;;3.35;;
63046;SDS011;62025;39.238;9.126;2023-06-19T13:23:44;10.02;;;3.85;;
63046;SDS011;62025;39.238;9.126;2023-06-19T13:26:10;4.97;;;3.47;;
63046;SDS011;62025;39.238;9.126;2023-06-19T13:28:36;7.38;;;3.88;;
63046;SDS011;62025;39.238;9.126;2023-06-19T13:31:02;6.95;;;3.60;;
63046;SDS011;62025;39.238;9.126;2023-06-19T13:33:29;4.90;;;3.45;;
63046;SDS011;62025;39.238;9.126;2023-06-19T13:35:55;4.80;;;3.47;;
63046;SDS011;62025;39.238;9.126;2023-06-19T13:38:21;5.40;;;3.25;;
63046;SDS011;62025;39.238;9.126;2023-06-19T13:40:47;7.32;;;3.38;;
63046;SDS011;62025;39.238;9.126;2023-06-19T13:43:14;8.23;;;3.92;;
63046;SDS011;62025;39.238;9.126;2023-06-19T13:45:40;8.30;;;3.20;;
63046;SDS011;62025;39.238;9.126;2023-06-19T13:48:06;6.15;;;3.38;;
63046;SDS011;62025;39.238;9.126;2023-06-19T13:50:32;7.50;;;3.50;;
63046;SDS011;62025;39.238;9.126;2023-06-19T13:52:59;5.72;;;3.42;;
63046;SDS011;62025;39.238;9.126;2023-06-19T13:55:27;9.15;;;3.38;;
63046;SDS011;62025;39.238;9.126;2023-06-19T13:57:53;5.57;;;3.28;;
63046;SDS011;62025;39.238;9.126;2023-06-19T14:00:19;3.88;;;3.30;;
63046;SDS011;62025;39.238;9.126;2023-06-19T14:02:45;5.55;;;3.50;;
63046;SDS011;62025;39.238;9.126;2023-06-19T14:05:11;8.02;;;3.63;;
63046;SDS011;62025;39.238;9.126;2023-06-19T14:07:40;6.88;;;3.42;;
63046;SDS011;62025;39.238;9.126;2023-06-19T14:10:07;6.57;;;3.50;;
63046;SDS011;62025;39.238;9.126;2023-06-19T14:12:34;8.18;;;3.90;;
63046;SDS011;62025;39.238;9.126;2023-06-19T14:15:00;8.00;;;4.05;;
63046;SDS011;62025;39.238;9.126;2023-06-19T14:17:26;7.75;;;3.80;;
63046;SDS011;62025;39.238;9.126;2023-06-19T14:19:52;11.15;;;3.58;;
63046;SDS011;62025;39.238;9.126;2023-06-19T14:24:46;6.65;;;3.45;;
63046;SDS011;62025;39.238;9.126;2023-06-19T14:27:12;7.13;;;3.90;;
63046;SDS011;62025;39.238;9.126;2023-06-19T14:29:39;9.40;;;3.78;;
63046;SDS011;62025;39.238;9.126;2023-06-19T14:32:05;8.93;;;3.80;;
63046;SDS011;62025;39.238;9.126;2023-06-19T14:34:31;9.80;;;4.03;;
63046;SDS011;62025;39.238;9.126;2023-06-19T14:36:57;8.20;;;3.70;;
63046;SDS011;62025;39.238;9.126;2023-06-19T14:39:22;5.53;;;3.25;;
63046;SDS011;62025;39.238;9.126;2023-06-19T14:41:48;10.45;;;3.90;;
63046;SDS011;62025;39.238;9.126;2023-06-19T14:44:14;8.05;;;3.63;;
63046;SDS011;62025;39.238;9.126;2023-06-19T14:46:40;10.32;;;3.63;;
63046;SDS011;62025;39.238;9.126;2023-06-19T14:49:06;8.60;;;3.70;;
63046;SDS011;62025;39.238;9.126;2023-06-19T14:51:35;8.80;;;3.42;;
63046;SDS011;62025;39.238;9.126;2023-06-19T14:54:01;9.82;;;3.80;;
63046;SDS011;62025;39.238;9.126;2023-06-19T14:56:27;10.70;;;3.78;;
63046;SDS011;62025;39.238;9.126;2023-06-19T14:58:54;8.68;;;3.85;;
63046;SDS011;62025;39.238;9.126;2023-06-19T15:01:20;7.35;;;3.50;;
63046;SDS011;62025;39.238;9.126;2023-06-19T15:03:46;6.95;;;3.50;;
63046;SDS011;62025;39.238;9.126;2023-06-19T15:06:12;8.55;;;3.53;;
63046;SDS011;62025;39.238;9.126;2023-06-19T15:08:38;8.27;;;3.50;;
63046;SDS011;62025;39.238;9.126;2023-06-19T15:11:04;8.13;;;3.75;;
63046;SDS011;62025;39.238;9.126;2023-06-19T15:13:31;6.70;;;3.20;;